Time;durP1;ratioP1;P1;durP2;ratioP2;P2;SDS_P1;SDS_P2;PMS_P1;PMS_P2;Temp;Humidity;BMP_temperature;BMP_pressure;BME280_temperature;BME280_humidity;BME280_pressure;Samples;Min_cycle;Max_cycle;Signal;HPM_P1;HPM_P2
2021/10/29 00:00:44;;;;;;;44.20;21.30;;;;;;;5.02;72.98;100668.42;113117;1199;22481;-59
2021/10/29 00:03:13;;;;;;;42.30;20.60;;;;;;;5.00;73.07;100667.75;112967;1193;23024;-58
2021/10/29 00:05:41;;;;;;;45.50;21.50;;;;;;;4.98;73.06;100664.64;112827;1199;22454;-59
2021/10/29 00:08:09;;;;;;;42.20;19.90;;;;;;;4.96;73.05;100667.29;112991;1194;22490;-59
2021/10/29 00:10:38;;;;;;;42.00;20.90;;;;;;;4.93;72.93;100669.50;112821;1199;22442;-58
2021/10/29 00:13:06;;;;;;;44.40;20.40;;;;;;;4.90;72.86;100666.95;112808;1194;22552;-59
2021/10/29 00:15:36;;;;;;;40.80;21.00;;;;;;;4.88;72.90;100666.60;112774;1199;25068;-59
2021/10/29 00:18:04;;;;;;;41.20;20.10;;;;;;;4.86;72.94;100665.86;112946;1199;22448;-59
2021/10/29 00:20:34;;;;;;;44.50;20.70;;;;;;;4.84;72.87;100670.15;112898;1199;22493;-59
2021/10/29 00:23:02;;;;;;;43.50;20.40;;;;;;;4.83;72.87;100672.33;113006;1199;22448;-60
2021/10/29 00:25:31;;;;;;;44.20;20.00;;;;;;;4.81;72.91;100669.69;112985;1198;24116;-60
2021/10/29 00:28:00;;;;;;;45.60;21.00;;;;;;;4.78;72.92;100670.30;112939;1199;25170;-59
2021/10/29 00:30:28;;;;;;;45.20;19.50;;;;;;;4.74;72.92;100668.27;113071;1192;22585;-58
2021/10/29 00:32:56;;;;;;;45.20;21.30;;;;;;;4.72;72.92;100668.31;112817;1199;22445;-59
2021/10/29 00:35:25;;;;;;;49.30;21.70;;;;;;;4.69;72.94;100667.73;112823;1193;25065;-59
2021/10/29 00:37:54;;;;;;;42.10;19.60;;;;;;;4.66;72.93;100664.02;112847;1199;24183;-58
2021/10/29 00:40:25;;;;;;;41.50;20.80;;;;;;;4.62;73.01;100656.77;112976;1199;22449;-59
2021/10/29 00:42:53;;;;;;;46.60;20.50;;;;;;;4.60;73.05;100658.31;112868;1199;22574;-59
2021/10/29 00:45:21;;;;;;;44.20;21.60;;;;;;;4.58;73.05;100656.47;112886;1199;24259;-57
2021/10/29 00:47:52;;;;;;;45.30;20.30;;;;;;;4.56;73.06;100657.52;112868;1199;23918;-58
2021/10/29 00:50:21;;;;;;;38.50;20.00;;;;;;;4.53;73.11;100651.81;112818;1199;22674;-59
2021/10/29 00:52:49;;;;;;;40.20;19.20;;;;;;;4.51;73.13;100652.73;112930;1199;22435;-59
2021/10/29 00:55:17;;;;;;;38.90;18.70;;;;;;;4.51;73.14;100651.24;112848;1199;24113;-59
2021/10/29 00:57:45;;;;;;;43.00;19.00;;;;;;;4.49;73.19;100646.88;112831;1199;25069;-59
2021/10/29 01:00:15;;;;;;;44.50;20.80;;;;;;;4.48;73.23;100640.95;112899;1193;24308;-59
2021/10/29 01:02:43;;;;;;;38.20;18.00;;;;;;;4.47;73.31;100638.61;113061;1194;22497;-59
2021/10/29 01:05:11;;;;;;;40.30;19.00;;;;;;;4.45;73.32;100632.41;112611;1193;22568;-59
2021/10/29 01:07:39;;;;;;;43.50;20.40;;;;;;;4.43;73.31;100636.71;112663;1199;22439;-57
2021/10/29 01:10:10;;;;;;;39.60;18.50;;;;;;;4.39;73.32;100634.10;112737;1199;25251;-59
2021/10/29 01:12:38;;;;;;;38.90;17.90;;;;;;;4.38;73.47;100633.33;112944;1199;25137;-58
2021/10/29 01:15:09;;;;;;;44.00;19.80;;;;;;;4.36;73.45;100629.29;113023;1193;22444;-57
2021/10/29 01:17:38;;;;;;;40.40;19.60;;;;;;;4.33;73.47;100620.35;113150;1199;22428;-59
2021/10/29 01:20:09;;;;;;;43.10;18.80;;;;;;;4.30;73.49;100624.20;113078;1199;23120;-59
2021/10/29 01:22:38;;;;;;;38.90;18.80;;;;;;;4.28;73.54;100621.17;113003;1192;22445;-59
2021/10/29 01:25:10;;;;;;;41.10;19.10;;;;;;;4.26;73.51;100617.27;112963;1199;22552;-59
2021/10/29 01:27:38;;;;;;;40.20;19.10;;;;;;;4.24;73.52;100612.34;112948;1193;24088;-58
2021/10/29 01:30:09;;;;;;;41.60;18.60;;;;;;;4.21;73.47;100616.48;112899;1199;24313;-58
2021/10/29 01:32:39;;;;;;;38.10;18.20;;;;;;;4.20;73.56;100614.70;112846;1199;23253;-59
2021/10/29 01:35:09;;;;;;;47.10;19.30;;;;;;;4.18;73.61;100615.30;112924;1199;23163;-57
2021/10/29 01:37:38;;;;;;;39.80;17.70;;;;;;;4.15;73.56;100614.33;112899;1199;24054;-59
2021/10/29 01:40:10;;;;;;;41.20;18.90;;;;;;;4.12;73.65;100618.34;112886;1199;22417;-58
2021/10/29 01:42:38;;;;;;;38.80;19.50;;;;;;;4.09;73.61;100618.16;112895;1199;22435;-58
2021/10/29 01:45:08;;;;;;;37.70;18.10;;;;;;;4.07;73.73;100614.34;113120;1199;25098;-59
2021/10/29 01:47:36;;;;;;;38.60;18.50;;;;;;;4.06;73.72;100613.02;112807;1194;24086;-59
2021/10/29 01:50:07;;;;;;;35.90;17.00;;;;;;;4.05;73.78;100606.88;113038;1192;24850;-58
2021/10/29 01:52:36;;;;;;;39.20;17.30;;;;;;;4.02;73.65;100610.16;113029;1193;22441;-59
2021/10/29 01:55:06;;;;;;;38.80;18.10;;;;;;;3.98;73.74;100605.77;112966;1199;25106;-58
2021/10/29 01:57:35;;;;;;;39.40;18.90;;;;;;;3.95;73.85;100603.23;113068;1199;25845;-59
2021/10/29 02:00:05;;;;;;;38.80;17.00;;;;;;;3.92;73.83;100603.91;113061;1199;22422;-58
2021/10/29 02:02:33;;;;;;;38.70;18.50;;;;;;;3.88;73.84;100600.53;112982;1199;22418;-60
2021/10/29 02:05:02;;;;;;;33.70;16.80;;;;;;;3.82;73.89;100599.05;112866;1192;24087;-60
2021/10/29 02:07:30;;;;;;;38.20;18.60;;;;;;;3.75;73.84;100600.21;112877;1199;24091;-57
2021/10/29 02:09:58;;;;;;;43.60;19.10;;;;;;;3.72;73.83;100598.63;112833;1199;23037;-58
2021/10/29 02:12:27;;;;;;;36.70;18.30;;;;;;;3.68;73.83;100600.60;113106;1199;22438;-58
2021/10/29 02:14:56;;;;;;;40.50;19.80;;;;;;;3.63;73.79;100598.09;112943;1199;22437;-59
2021/10/29 02:17:25;;;;;;;43.50;19.20;;;;;;;3.58;73.75;100596.36;112962;1199;26021;-57
2021/10/29 02:19:53;;;;;;;37.50;18.40;;;;;;;3.53;73.87;100594.18;112934;1199;22435;-58
2021/10/29 02:22:22;;;;;;;44.50;17.70;;;;;;;3.47;73.78;100596.65;112916;1199;22438;-57
2021/10/29 02:24:50;;;;;;;40.40;18.70;;;;;;;3.43;73.84;100596.65;112975;1199;25177;-56
2021/10/29 02:27:18;;;;;;;36.00;18.10;;;;;;;3.41;73.79;100592.35;113005;1199;22488;-59
2021/10/29 02:29:47;;;;;;;39.60;18.90;;;;;;;3.34;73.78;100592.95;113021;1199;25202;-57
2021/10/29 02:32:15;;;;;;;40.30;16.80;;;;;;;3.30;73.74;100590.80;113009;1199;22414;-58
2021/10/29 02:34:43;;;;;;;37.90;17.40;;;;;;;3.24;73.85;100587.36;112970;1199;22458;-58
2021/10/29 02:37:13;;;;;;;36.20;16.90;;;;;;;3.21;73.84;100585.85;113085;1199;22438;-58
2021/10/29 02:39:41;;;;;;;41.60;18.70;;;;;;;3.18;73.84;100579.83;113088;1199;22460;-59
2021/10/29 02:42:09;;;;;;;41.50;18.70;;;;;;;3.18;74.13;100579.74;113474;1199;22733;-59
2021/10/29 02:44:38;;;;;;;40.80;18.90;;;;;;;3.20;74.32;100576.64;113254;1194;22438;-57
2021/10/29 02:47:07;;;;;;;41.00;18.60;;;;;;;3.21;74.49;100578.59;113040;1199;24214;-59
2021/10/29 02:49:38;;;;;;;39.40;18.40;;;;;;;3.22;74.61;100579.35;113066;1199;23231;-59
2021/10/29 02:52:08;;;;;;;40.50;18.40;;;;;;;3.24;74.56;100576.42;113215;1199;22431;-58
2021/10/29 02:54:37;;;;;;;37.90;19.90;;;;;;;3.23;74.64;100574.14;113104;1199;22415;-59
2021/10/29 02:57:05;;;;;;;44.50;19.90;;;;;;;3.23;74.60;100572.16;112970;1199;24095;-58
2021/10/29 02:59:34;;;;;;;45.60;20.70;;;;;;;3.21;74.70;100572.83;113055;1199;22495;-59
2021/10/29 03:02:03;;;;;;;40.40;17.40;;;;;;;3.19;74.66;100572.16;113002;1199;22421;-59
2021/10/29 03:04:32;;;;;;;40.00;18.80;;;;;;;3.15;74.61;100576.27;113154;1199;25268;-58
2021/10/29 03:07:00;;;;;;;39.60;18.30;;;;;;;3.10;74.64;100573.90;113012;1199;22758;-59
2021/10/29 03:09:28;;;;;;;44.90;19.10;;;;;;;3.04;74.71;100576.60;112944;1199;22833;-58
2021/10/29 03:11:56;;;;;;;36.90;17.00;;;;;;;2.95;74.36;100574.23;112976;1199;22545;-59
2021/10/29 03:14:24;;;;;;;37.60;16.60;;;;;;;2.86;74.12;100573.44;112922;1199;24091;-58
2021/10/29 03:16:52;;;;;;;39.80;17.60;;;;;;;2.80;74.21;100570.55;113008;1199;25242;-58
2021/10/29 03:19:20;;;;;;;38.50;16.70;;;;;;;2.75;74.15;100571.25;112760;1184;25834;-59
2021/10/29 03:21:48;;;;;;;41.90;18.50;;;;;;;2.68;74.19;100566.16;112935;1199;22480;-59
2021/10/29 03:24:17;;;;;;;36.20;17.20;;;;;;;2.63;74.29;100564.20;112989;1199;22494;-58
2021/10/29 03:26:46;;;;;;;46.70;24.10;;;;;;;2.60;74.41;100561.47;112939;1199;22638;-58
2021/10/29 03:29:14;;;;;;;50.50;28.00;;;;;;;2.59;74.63;100561.27;113255;1199;26362;-58
2021/10/29 03:31:43;;;;;;;51.40;26.10;;;;;;;2.58;74.75;100556.95;113036;1198;22440;-56
2021/10/29 03:34:11;;;;;;;47.10;24.10;;;;;;;2.56;74.88;100552.65;113022;1199;22569;-57
2021/10/29 03:36:39;;;;;;;49.50;24.10;;;;;;;2.57;75.05;100554.51;112988;1199;25319;-59
2021/10/29 03:39:09;;;;;;;44.00;22.50;;;;;;;2.58;75.13;100553.48;112959;1199;25329;-59
2021/10/29 03:41:43;;;;;;;48.60;23.40;;;;;;;2.58;75.14;100549.79;112970;1199;25175;-57
2021/10/29 03:44:19;;;;;;;47.20;24.70;;;;;;;2.57;75.30;100548.69;112906;1199;24076;-57
2021/10/29 03:46:48;;;;;;;47.50;21.40;;;;;;;2.59;75.53;100547.25;112873;1199;25074;-57
2021/10/29 03:49:22;;;;;;;41.40;20.60;;;;;;;2.62;75.74;100544.28;117046;1199;23187;-58
2021/10/29 03:51:53;;;;;;;45.00;21.00;;;;;;;2.66;75.94;100541.79;117125;1191;22275;-54
2021/10/29 03:54:24;;;;;;;48.40;21.60;;;;;;;2.71;76.04;100539.83;117095;1199;22177;-58
2021/10/29 03:56:58;;;;;;;46.70;20.40;;;;;;;2.75;76.01;100538.80;117141;1198;22185;-59
2021/10/29 03:59:26;;;;;;;43.40;21.60;;;;;;;2.80;76.17;100539.44;117124;1198;22325;-58
2021/10/29 04:01:54;;;;;;;44.70;19.50;;;;;;;2.85;76.24;100541.15;117135;1198;22306;-58
2021/10/29 04:04:22;;;;;;;43.20;19.80;;;;;;;2.90;76.28;100542.09;117126;1199;22268;-59
2021/10/29 04:06:50;;;;;;;43.10;18.60;;;;;;;2.94;76.28;100536.66;117134;1199;22184;-59
2021/10/29 04:09:18;;;;;;;37.40;18.60;;;;;;;2.99;76.27;100539.81;117104;1199;23067;-59
2021/10/29 04:11:46;;;;;;;42.20;18.30;;;;;;;3.04;76.32;100538.30;117066;1198;22174;-58
2021/10/29 04:14:16;;;;;;;44.70;20.10;;;;;;;3.08;76.32;100541.70;117073;1199;22157;-58
2021/10/29 04:16:44;;;;;;;39.90;19.00;;;;;;;3.12;76.40;100542.41;117089;1199;22244;-59
2021/10/29 04:19:14;;;;;;;41.30;19.80;;;;;;;3.16;76.32;100540.77;117070;1198;22885;-59
2021/10/29 04:21:42;;;;;;;41.20;20.90;;;;;;;3.21;76.25;100539.02;117104;1197;22288;-61
2021/10/29 04:24:10;;;;;;;41.10;19.30;;;;;;;3.25;76.27;100536.98;117033;1198;22121;-59
2021/10/29 04:26:38;;;;;;;43.50;22.50;;;;;;;3.29;76.16;100533.20;117089;1193;23062;-60
2021/10/29 04:29:13;;;;;;;48.20;22.10;;;;;;;3.33;76.11;100531.33;117135;1199;23058;-59
2021/10/29 04:31:48;;;;;;;42.30;21.40;;;;;;;3.35;75.99;100523.70;117145;1198;22160;-64
2021/10/29 04:34:17;;;;;;;47.70;22.60;;;;;;;3.38;76.14;100526.80;117081;1199;22168;-56
2021/10/29 04:36:46;;;;;;;43.20;20.90;;;;;;;3.40;76.12;100519.59;117124;1199;22185;-56
2021/10/29 04:39:14;;;;;;;46.40;22.20;;;;;;;3.43;76.11;100519.46;117148;1199;22152;-58
2021/10/29 04:41:44;;;;;;;45.40;22.70;;;;;;;3.43;76.22;100519.84;117034;1199;22184;-56
2021/10/29 04:44:15;;;;;;;44.20;21.10;;;;;;;3.46;76.18;100523.49;117002;1198;22228;-56
2021/10/29 04:46:46;;;;;;;39.90;20.20;;;;;;;3.45;76.09;100523.50;117054;1199;22349;-56
2021/10/29 04:49:14;;;;;;;46.20;22.00;;;;;;;3.46;76.12;100521.52;117050;1197;22362;-55
2021/10/29 04:51:42;;;;;;;47.10;21.70;;;;;;;3.45;76.21;100521.94;117114;1199;22334;-56
2021/10/29 04:54:10;;;;;;;45.60;19.70;;;;;;;3.45;76.18;100523.12;117117;1192;23005;-56
2021/10/29 04:56:39;;;;;;;48.30;21.60;;;;;;;3.44;76.17;100524.32;117023;1198;22263;-54
2021/10/29 04:59:07;;;;;;;43.80;22.70;;;;;;;3.44;76.22;100526.20;117062;1198;22358;-55
2021/10/29 05:01:35;;;;;;;45.30;21.80;;;;;;;3.45;76.13;100524.05;117031;1198;22358;-58
2021/10/29 05:04:03;;;;;;;45.10;21.50;;;;;;;3.47;76.12;100524.64;117065;1198;22316;-57
2021/10/29 05:06:31;;;;;;;45.20;20.90;;;;;;;3.47;76.10;100524.89;117098;1198;22318;-57
2021/10/29 05:08:59;;;;;;;47.10;22.30;;;;;;;3.46;76.08;100524.77;117105;1198;22379;-54
2021/10/29 05:11:28;;;;;;;44.10;20.60;;;;;;;3.44;76.05;100524.23;117109;1198;22336;-55
2021/10/29 05:13:57;;;;;;;42.40;20.00;;;;;;;3.41;76.08;100525.17;117079;1193;22960;-57
2021/10/29 05:16:25;;;;;;;39.90;20.00;;;;;;;3.39;76.11;100521.73;117073;1198;22191;-55
2021/10/29 05:18:53;;;;;;;44.00;20.30;;;;;;;3.37;76.09;100522.96;117116;1199;22384;-56
2021/10/29 05:21:21;;;;;;;47.30;20.00;;;;;;;3.34;76.12;100519.15;117129;1198;22196;-56
2021/10/29 05:23:49;;;;;;;37.90;20.40;;;;;;;3.34;76.25;100516.64;117092;1199;22421;-58
2021/10/29 05:26:18;;;;;;;44.50;20.90;;;;;;;3.35;76.28;100511.48;117079;1198;22168;-58
2021/10/29 05:28:46;;;;;;;46.10;21.40;;;;;;;3.37;76.30;100511.45;117103;1198;22843;-58
2021/10/29 05:31:15;;;;;;;44.80;20.70;;;;;;;3.36;76.24;100509.65;117089;1198;22147;-58
2021/10/29 05:33:43;;;;;;;41.90;20.20;;;;;;;3.38;76.32;100512.44;117141;1198;22146;-58
2021/10/29 05:36:12;;;;;;;42.60;19.50;;;;;;;3.40;76.26;100511.54;117077;1199;22319;-56
2021/10/29 05:38:40;;;;;;;40.40;18.70;;;;;;;3.40;76.25;100516.99;117118;1198;22261;-57
2021/10/29 05:41:11;;;;;;;46.40;20.80;;;;;;;3.40;76.25;100515.57;117086;1199;22371;-54
2021/10/29 05:43:40;;;;;;;49.00;20.70;;;;;;;3.40;76.19;100518.56;117126;1199;23020;-55
2021/10/29 05:46:08;;;;;;;41.20;18.90;;;;;;;3.42;76.24;100516.89;117102;1198;22283;-56
2021/10/29 05:48:38;;;;;;;41.30;18.90;;;;;;;3.42;76.20;100516.64;117096;1198;22280;-54
2021/10/29 05:51:09;;;;;;;40.80;19.50;;;;;;;3.41;76.14;100517.99;117111;1199;23038;-56
2021/10/29 05:53:50;;;;;;;40.10;18.50;;;;;;;3.42;76.13;100518.77;117062;1199;22334;-57
2021/10/29 05:56:21;;;;;;;;;;;;;;;3.41;76.08;100520.20;117107;1197;22367;-57
2021/10/29 05:58:50;;;;;;;43.10;20.30;;;;;;;3.41;76.21;100518.63;117046;1198;22373;-54
2021/10/29 06:01:18;;;;;;;39.10;19.50;;;;;;;3.42;76.28;100517.65;117076;1192;23116;-56
2021/10/29 06:03:47;;;;;;;42.00;19.90;;;;;;;3.42;76.26;100513.48;117169;1199;22391;-57
2021/10/29 06:06:16;;;;;;;41.30;20.20;;;;;;;3.43;76.30;100517.56;117134;1198;22331;-56
2021/10/29 06:08:45;;;;;;;45.90;22.00;;;;;;;3.45;76.23;100521.00;117062;1197;22295;-56
2021/10/29 06:11:13;;;;;;;40.20;19.50;;;;;;;3.45;76.31;100521.38;117100;1198;22338;-57
2021/10/29 06:13:42;;;;;;;44.10;21.30;;;;;;;3.46;76.29;100520.57;117113;1198;22346;-55
2021/10/29 06:16:11;;;;;;;44.70;22.30;;;;;;;3.46;76.30;100519.93;117053;1198;23133;-55
2021/10/29 06:18:39;;;;;;;42.70;21.30;;;;;;;3.47;76.31;100525.44;117126;1199;23175;-54
2021/10/29 06:21:09;;;;;;;49.90;23.50;;;;;;;3.45;76.31;100525.95;117117;1198;22280;-54
2021/10/29 06:23:47;;;;;;;61.80;29.30;;;;;;;3.42;76.34;100531.38;117133;1199;22375;-55
2021/10/29 06:26:22;;;;;;;59.20;29.30;;;;;;;3.41;76.40;100531.88;117067;1199;22204;-56
2021/10/29 06:28:53;;;;;;;65.30;32.10;;;;;;;3.41;76.48;100538.10;117073;1198;22345;-55
2021/10/29 06:31:22;;;;;;;73.30;33.50;;;;;;;3.40;76.39;100541.73;117086;1199;22846;-54
2021/10/29 06:33:50;;;;;;;66.20;31.60;;;;;;;3.42;76.42;100542.90;117147;1198;22380;-55
2021/10/29 06:36:18;;;;;;;62.60;30.30;;;;;;;3.43;76.41;100544.91;117140;1198;22749;-57
2021/10/29 06:38:48;;;;;;;62.00;29.10;;;;;;;3.45;76.42;100545.05;117119;1198;22232;-57
2021/10/29 06:41:16;;;;;;;50.90;26.90;;;;;;;3.47;76.50;100545.56;117093;1198;22383;-56
2021/10/29 06:43:50;;;;;;;51.90;25.60;;;;;;;3.48;76.47;100542.77;117109;1199;22148;-56
2021/10/29 06:46:29;;;;;;;50.20;24.10;;;;;;;3.52;76.48;100543.10;117120;1199;22275;-54
2021/10/29 06:49:13;;;;;;;45.70;21.80;;;;;;;3.56;76.60;100551.06;117041;1197;23070;-57
2021/10/29 07:00:10;;;;;;;45.30;23.20;;;;;;;3.79;76.60;100554.08;116611;1201;22233;-57
2021/10/29 07:41:50;;;;;;;43.10;20.40;;;;;;;4.79;77.01;100556.88;117065;1199;22259;-57
2021/10/29 07:44:20;;;;;;;39.40;18.40;;;;;;;4.86;76.99;100557.41;117070;1198;23098;-58
2021/10/29 07:46:48;;;;;;;42.00;21.60;;;;;;;4.93;77.01;100559.55;117108;1198;22365;-56
2021/10/29 07:49:17;;;;;;;41.40;20.50;;;;;;;5.01;77.03;100559.11;117018;1198;22394;-58
2021/10/29 07:51:45;;;;;;;44.50;20.10;;;;;;;5.10;76.93;100558.41;117041;1198;23081;-58
2021/10/29 07:54:13;;;;;;;46.90;20.50;;;;;;;5.17;76.82;100557.58;117088;1192;22299;-57
2021/10/29 07:56:42;;;;;;;45.30;22.40;;;;;;;5.25;76.83;100557.70;117104;1198;22348;-58
2021/10/29 07:59:10;;;;;;;39.70;18.90;;;;;;;5.32;76.89;100555.70;117047;1198;22930;-57
2021/10/29 08:01:38;;;;;;;43.50;20.10;;;;;;;5.39;76.95;100555.57;117104;1199;22270;-60
2021/10/29 08:04:07;;;;;;;52.20;21.70;;;;;;;5.49;76.97;100561.25;117055;1199;22424;-59
2021/10/29 08:06:35;;;;;;;40.70;20.50;;;;;;;5.57;77.00;100553.83;117034;1198;22190;-57
2021/10/29 08:09:04;;;;;;;39.70;19.60;;;;;;;5.65;76.90;100553.67;117082;1198;23285;-58
2021/10/29 08:11:32;;;;;;;42.50;21.00;;;;;;;5.73;77.03;100551.92;117120;1198;22958;-57
2021/10/29 08:14:00;;;;;;;41.50;19.70;;;;;;;5.84;77.17;100548.25;117053;1198;22952;-57
2021/10/29 08:16:28;;;;;;;37.40;16.10;;;;;;;5.94;76.87;100549.73;117081;1199;22459;-56
2021/10/29 08:18:56;;;;;;;38.60;17.70;;;;;;;6.09;76.50;100550.61;117099;1198;23056;-57
2021/10/29 08:21:25;;;;;;;37.00;18.20;;;;;;;6.26;76.32;100548.05;116007;1192;24055;-56
2021/10/29 08:23:54;;;;;;;32.20;15.20;;;;;;;6.41;75.88;100544.88;117118;1198;22865;-56
2021/10/29 08:26:23;;;;;;;32.00;14.50;;;;;;;6.55;75.60;100545.88;117061;1184;22147;-55
2021/10/29 08:28:51;;;;;;;27.90;12.50;;;;;;;6.69;75.39;100541.33;117035;1199;22637;-56
2021/10/29 08:31:19;;;;;;;26.40;13.00;;;;;;;6.87;75.14;100539.27;117075;1199;22174;-57
2021/10/29 08:33:49;;;;;;;30.90;14.70;;;;;;;7.06;75.11;100541.35;117128;1198;22173;-56
2021/10/29 08:36:19;;;;;;;33.20;14.30;;;;;;;7.19;74.76;100535.20;117057;1199;22157;-56
2021/10/29 08:38:49;;;;;;;33.50;13.60;;;;;;;7.33;74.53;100537.96;117076;1199;22988;-57
2021/10/29 08:41:18;;;;;;;34.40;14.40;;;;;;;7.49;74.40;100535.59;116914;1199;22496;-56
2021/10/29 08:43:47;;;;;;;34.60;15.30;;;;;;;7.65;74.29;100530.46;117073;1198;22197;-57
2021/10/29 08:46:17;;;;;;;31.30;13.90;;;;;;;7.75;74.13;100526.84;117044;1192;22208;-57
2021/10/29 08:48:46;;;;;;;30.00;12.10;;;;;;;7.87;73.67;100524.41;117066;1199;22349;-57
2021/10/29 08:51:15;;;;;;;26.10;10.70;;;;;;;7.99;73.46;100518.56;117096;1199;23446;-56
2021/10/29 08:53:44;;;;;;;24.40;10.30;;;;;;;8.15;73.10;100523.83;117039;1199;22361;-54
2021/10/29 08:56:13;;;;;;;26.20;10.20;;;;;;;8.33;72.61;100520.70;117040;1198;22903;-55
2021/10/29 08:59:05;;;;;;;22.00;9.90;;;;;;;8.47;72.09;100518.32;116996;1198;22332;-58
2021/10/29 09:01:48;;;;;;;27.80;10.00;;;;;;;8.63;71.80;100518.23;117028;1192;23111;-56
2021/10/29 09:04:21;;;;;;;23.30;8.70;;;;;;;8.78;71.43;100516.32;117043;1198;22212;-58
2021/10/29 09:06:57;;;;;;;21.40;9.70;;;;;;;8.95;71.37;100518.16;117099;1199;22193;-57
2021/10/29 09:09:48;;;;;;;21.40;9.50;;;;;;;9.12;70.80;100513.88;117075;1199;22211;-58
2021/10/29 09:32:28;;;;;;;20.00;6.80;;;;;;;10.36;67.68;100514.89;116616;1194;22187;-56
2021/10/29 09:35:05;;;;;;;18.90;6.80;;;;;;;10.48;67.20;100514.47;116587;1202;22962;-55
2021/10/29 09:37:52;;;;;;;20.90;7.80;;;;;;;10.62;67.26;100513.02;116585;1195;22190;-58
2021/10/29 09:40:21;;;;;;;18.50;7.80;;;;;;;10.72;66.74;100511.31;116574;1202;22370;-60
2021/10/29 09:42:51;;;;;;;22.20;9.20;;;;;;;10.82;66.29;100509.25;116647;1201;22181;-58
2021/10/29 09:45:21;;;;;;;;;;;;;;;10.92;66.03;100501.77;116625;1201;22421;-60
2021/10/29 09:47:56;;;;;;;21.80;6.90;;;;;;;11.01;65.59;100503.92;116613;1202;22678;-60
2021/10/29 09:50:30;;;;;;;17.10;6.20;;;;;;;11.12;64.99;100502.59;116607;1202;22225;-56
2021/10/29 09:53:10;;;;;;;21.90;6.30;;;;;;;11.20;64.88;100498.23;116897;1192;22159;-55
2021/10/29 09:55:53;;;;;;;18.30;6.00;;;;;;;11.27;64.48;100502.30;117043;1192;22286;-55
2021/10/29 09:58:21;;;;;;;14.50;5.40;;;;;;;11.37;64.01;100495.75;117065;1199;22233;-55
2021/10/29 10:00:50;;;;;;;17.90;5.80;;;;;;;11.45;63.50;100491.00;117048;1199;22385;-59
2021/10/29 10:03:21;;;;;;;14.10;5.00;;;;;;;11.52;62.79;100494.91;117024;1198;22175;-58
2021/10/29 10:05:50;;;;;;;;;;;;;;;11.59;62.65;100493.32;117074;1199;23103;-59
2021/10/29 10:08:20;;;;;;;19.00;5.40;;;;;;;11.65;62.29;100492.10;117051;1198;22322;-58
2021/10/29 10:10:51;;;;;;;14.30;5.10;;;;;;;11.70;62.20;100489.33;117092;1199;23256;-58
2021/10/29 10:13:20;;;;;;;14.50;5.20;;;;;;;11.76;61.79;100481.26;117074;1199;22347;-58
2021/10/29 10:15:51;;;;;;;16.60;5.90;;;;;;;11.81;61.49;100485.71;117111;1199;22327;-59
2021/10/29 10:18:21;;;;;;;15.60;6.10;;;;;;;11.83;61.13;100482.96;117048;1199;22324;-56
2021/10/29 10:20:51;;;;;;;14.60;5.30;;;;;;;11.87;60.38;100477.28;117042;1198;22307;-56
2021/10/29 10:23:23;;;;;;;15.80;5.10;;;;;;;11.91;60.15;100475.26;117009;1199;22364;-55
2021/10/29 10:26:07;;;;;;;18.10;5.20;;;;;;;11.95;59.83;100475.49;117033;1199;22295;-58
2021/10/29 10:43:09;;;;;;;17.60;5.50;;;;;;;12.12;58.60;100474.55;116031;1207;22163;-56
2021/10/29 10:45:41;;;;;;;17.50;5.50;;;;;;;12.18;58.18;100472.21;116046;1207;22175;-56
2021/10/29 10:48:13;;;;;;;13.60;5.20;;;;;;;12.26;58.08;100467.80;116040;1207;22878;-55
2021/10/29 10:50:45;;;;;;;16.60;5.50;;;;;;;12.31;57.66;100466.31;116004;1204;22259;-56
2021/10/29 10:53:26;;;;;;;13.00;4.90;;;;;;;12.36;57.60;100465.57;116063;1207;22456;-57
2021/10/29 10:56:08;;;;;;;17.00;5.60;;;;;;;12.37;57.09;100467.04;116050;1207;22579;-57
2021/10/29 10:58:51;;;;;;;22.50;8.50;;;;;;;12.43;56.91;100466.17;116075;1203;22198;-55
2021/10/29 11:07:27;;;;;;;20.40;7.30;;;;;;;12.50;55.75;100467.70;115911;1202;23139;-57
2021/10/29 11:10:06;;;;;;;20.90;7.40;;;;;;;12.47;55.60;100464.09;115870;1209;22871;-55
2021/10/29 11:13:07;;;;;;;19.10;5.80;;;;;;;12.44;55.51;100470.72;116108;1203;22820;-58
2021/10/29 11:15:37;;;;;;;18.20;6.00;;;;;;;12.45;55.26;100468.23;116219;1205;23104;-58
2021/10/29 11:18:28;;;;;;;23.00;7.80;;;;;;;12.46;55.36;100469.02;116433;1201;22159;-59
2021/10/29 11:21:06;;;;;;;20.10;9.00;;;;;;;12.47;55.30;100459.01;116601;1202;22218;-58
2021/10/29 11:23:35;;;;;;;22.40;9.00;;;;;;;12.46;55.15;100453.88;116561;1202;23219;-59
2021/10/29 11:26:05;;;;;;;19.90;7.40;;;;;;;12.45;55.10;100449.86;116583;1197;22212;-56
2021/10/29 11:28:34;;;;;;;;;;;;;;;12.49;54.89;100450.83;116627;1201;22449;-58
2021/10/29 11:31:03;;;;;;;17.60;6.80;;;;;;;12.54;55.05;100446.27;116678;1202;23011;-57
2021/10/29 11:33:32;;;;;;;18.80;6.70;;;;;;;12.54;54.96;100442.11;113451;1203;22453;-58
2021/10/29 11:36:04;;;;;;;20.10;6.50;;;;;;;12.60;54.75;100436.99;116610;1202;22211;-58
2021/10/29 11:38:33;;;;;;;23.20;8.70;;;;;;;12.65;54.78;100431.92;116593;1202;22353;-57
2021/10/29 11:41:03;;;;;;;21.70;7.60;;;;;;;12.67;54.66;100428.23;116629;1200;22161;-57
2021/10/29 11:43:34;;;;;;;19.50;8.40;;;;;;;12.67;54.91;100425.98;117069;1198;22377;-59
2021/10/29 11:46:05;;;;;;;30.00;12.50;;;;;;;12.67;54.80;100423.27;117020;1198;22305;-59
2021/10/29 11:48:34;;;;;;;26.60;10.50;;;;;;;12.68;54.72;100421.27;116977;1199;22250;-59
2021/10/29 11:51:09;;;;;;;21.80;7.40;;;;;;;12.73;54.61;100420.88;117059;1199;22157;-59
2021/10/29 11:53:44;;;;;;;21.70;8.40;;;;;;;12.78;54.66;100415.33;116967;1199;22240;-59
2021/10/29 11:56:26;;;;;;;17.70;6.00;;;;;;;12.80;54.59;100407.58;117029;1199;23221;-60
2021/10/29 11:59:08;;;;;;;15.40;5.50;;;;;;;12.82;54.20;100399.55;117023;1199;22148;-61
2021/10/29 12:01:40;;;;;;;15.20;4.70;;;;;;;12.85;54.16;100401.01;116985;1184;22287;-61
2021/10/29 12:07:16;;;;;;;15.50;4.90;;;;;;;12.92;54.11;100384.95;116615;1202;22792;-61
2021/10/29 12:09:47;;;;;;;16.00;4.80;;;;;;;13.01;53.84;100379.95;116661;1202;22204;-58
2021/10/29 12:12:20;;;;;;;17.30;3.90;;;;;;;13.11;53.65;100376.02;116644;1201;22222;-58
2021/10/29 12:14:51;;;;;;;15.20;4.90;;;;;;;13.14;53.57;100376.52;116648;1195;22845;-59
2021/10/29 12:17:21;;;;;;;;;;;;;;;13.19;53.38;100371.66;116637;1201;22395;-59
2021/10/29 12:19:53;;;;;;;13.70;4.60;;;;;;;13.21;53.15;100372.86;116610;1195;22210;-58
2021/10/29 12:22:34;;;;;;;13.60;4.80;;;;;;;13.24;52.87;100367.95;116613;1201;22188;-60
2021/10/29 12:25:13;;;;;;;13.60;4.10;;;;;;;13.27;52.76;100365.95;116649;1202;22167;-61
2021/10/29 12:27:45;;;;;;;13.70;3.90;;;;;;;13.27;52.42;100366.50;116654;1202;21931;-61
2021/10/29 12:30:21;;;;;;;16.00;4.50;;;;;;;13.28;52.28;100365.64;116636;1201;22160;-60
2021/10/29 12:33:19;;;;;;;12.70;4.50;;;;;;;13.32;51.95;100360.48;116657;1201;22826;-59
2021/10/29 12:38:55;;;;;;;14.90;4.20;;;;;;;13.47;51.82;100357.72;116627;1202;22258;-58
2021/10/29 13:01:38;;;;;;;19.70;7.10;;;;;;;13.93;50.17;100326.60;117015;1198;22371;-60
2021/10/29 13:04:12;;;;;;;19.10;6.30;;;;;;;13.96;50.03;100325.91;117028;1199;23204;-61
2021/10/29 13:06:45;;;;;;;16.70;5.40;;;;;;;14.01;49.76;100327.98;117031;1199;22171;-60
2021/10/29 13:09:16;;;;;;;13.70;4.90;;;;;;;14.05;49.70;100326.54;116997;1199;22327;-62
2021/10/29 13:11:54;;;;;;;10.80;3.50;;;;;;;14.09;49.34;100319.77;117035;1191;22398;-61
2021/10/29 13:14:30;;;;;;;11.00;3.00;;;;;;;14.16;49.37;100314.82;117066;1192;23176;-59
2021/10/29 13:17:04;;;;;;;11.50;3.40;;;;;;;14.19;49.30;100311.66;116216;1198;22466;-60
2021/10/29 13:53:27;;;;;;;26.60;12.60;;;;;;;14.44;47.34;100279.13;116003;1201;22908;-56